createdAt,value
2018-11-07T00:00:52.126Z,95.17
2018-11-07T00:03:20.591Z,96.57
2018-11-07T00:05:48.669Z,102.77
2018-11-07T00:08:17.163Z,93.00
2018-11-07T00:10:45.268Z,88.87
2018-11-07T00:13:13.340Z,87.30
2018-11-07T00:15:41.510Z,81.93
2018-11-07T00:18:09.568Z,88.00
2018-11-07T00:20:37.611Z,87.50
2018-11-07T00:23:05.612Z,98.00
2018-11-07T00:25:33.667Z,97.47
2018-11-07T00:28:01.673Z,89.80
2018-11-07T00:30:29.710Z,88.27
2018-11-07T00:32:57.786Z,92.83
2018-11-07T00:35:25.827Z,90.50
2018-11-07T00:37:53.905Z,81.73
2018-11-07T00:40:21.981Z,83.50
2018-11-07T00:42:50.045Z,96.40
2018-11-07T00:45:18.117Z,82.23
2018-11-07T00:47:46.136Z,87.20
2018-11-07T00:50:15.712Z,82.90
2018-11-07T00:52:44.364Z,79.30
2018-11-07T00:55:13.187Z,80.40
2018-11-07T00:57:41.442Z,83.97
2018-11-07T01:00:11.228Z,78.67
2018-11-07T01:02:39.444Z,83.13
2018-11-07T01:05:08.710Z,71.13
2018-11-07T01:07:36.825Z,76.10
2018-11-07T01:10:05.306Z,78.47
2018-11-07T01:12:33.414Z,70.50
2018-11-07T01:15:01.540Z,77.20
2018-11-07T01:17:29.629Z,74.83
2018-11-07T01:19:57.673Z,75.10
2018-11-07T01:22:25.850Z,70.57
2018-11-07T01:24:53.898Z,74.37
2018-11-07T01:27:28.628Z,67.07
2018-11-07T01:29:56.802Z,72.63
2018-11-07T01:32:24.864Z,70.90
2018-11-07T01:34:52.945Z,73.37
2018-11-07T01:37:21.018Z,75.50
2018-11-07T01:39:49.059Z,72.33
2018-11-07T01:42:17.134Z,66.70
2018-11-07T01:44:45.313Z,69.23
2018-11-07T01:47:13.385Z,66.80
2018-11-07T01:49:41.466Z,68.17
2018-11-07T01:52:09.486Z,66.23
2018-11-07T01:54:37.504Z,67.00
2018-11-07T01:57:05.722Z,77.97
2018-11-07T01:59:33.717Z,69.20
2018-11-07T02:02:01.891Z,65.77
2018-11-07T02:04:29.936Z,65.03
2018-11-07T02:06:58.069Z,55.13
2018-11-07T02:09:26.060Z,53.40
2018-11-07T02:11:54.119Z,63.90
2018-11-07T02:14:22.175Z,56.83
2018-11-07T02:16:50.212Z,61.47
2018-11-07T02:19:18.235Z,54.40
2018-11-07T02:21:46.234Z,57.90
2018-11-07T02:24:14.260Z,64.27
2018-11-07T02:26:42.331Z,58.57
2018-11-07T02:29:14.197Z,57.47
2018-11-07T02:31:43.972Z,62.77
2018-11-07T02:34:12.350Z,51.03
2018-11-07T02:36:40.942Z,57.37
2018-11-07T02:39:11.052Z,55.17
2018-11-07T02:41:39.485Z,48.33
2018-11-07T02:44:07.712Z,52.90
2018-11-07T02:46:35.861Z,49.70
2018-11-07T02:49:04.070Z,49.67
2018-11-07T02:51:32.209Z,51.13
2018-11-07T02:54:01.000Z,48.37
2018-11-07T02:56:29.327Z,50.80
2018-11-07T02:58:57.757Z,50.10
2018-11-07T03:01:26.160Z,44.87
2018-11-07T03:03:54.158Z,41.17
2018-11-07T03:06:22.197Z,46.80
2018-11-07T03:08:50.253Z,49.77
2018-11-07T03:11:18.240Z,51.17
2018-11-07T03:13:46.390Z,50.77
2018-11-07T03:16:14.411Z,45.20
2018-11-07T03:18:42.790Z,50.33
2018-11-07T03:21:10.865Z,46.13
2018-11-07T03:23:38.970Z,48.00
2018-11-07T03:26:07.068Z,48.70
2018-11-07T03:28:35.181Z,49.23
2018-11-07T03:31:03.227Z,43.93
2018-11-07T03:33:31.297Z,45.87
2018-11-07T03:35:59.392Z,50.53
2018-11-07T03:38:27.506Z,47.73
2018-11-07T03:40:55.734Z,48.80
2018-11-07T03:43:23.928Z,43.13
2018-11-07T03:45:57.515Z,50.07
2018-11-07T03:48:26.649Z,49.57
2018-11-07T03:50:54.746Z,47.53
2018-11-07T03:53:22.921Z,59.37
2018-11-07T03:55:50.937Z,53.83
2018-11-07T03:58:18.949Z,51.13
2018-11-07T04:00:47.021Z,52.53
2018-11-07T04:03:15.407Z,51.87
2018-11-07T04:05:43.486Z,46.83
2018-11-07T04:08:11.639Z,44.10
2018-11-07T04:10:39.723Z,45.67
2018-11-07T04:13:07.763Z,48.53
2018-11-07T04:15:35.823Z,46.87
2018-11-07T04:18:03.884Z,47.50
2018-11-07T04:20:32.146Z,44.63
2018-11-07T04:23:00.241Z,42.07
2018-11-07T04:25:28.293Z,46.40
2018-11-07T04:27:56.390Z,46.83
2018-11-07T04:30:24.446Z,45.60
2018-11-07T04:32:52.540Z,50.83
2018-11-07T04:35:20.696Z,45.43
2018-11-07T04:37:48.770Z,45.00
2018-11-07T04:40:16.820Z,47.80
2018-11-07T04:42:44.875Z,46.07
2018-11-07T04:45:12.947Z,41.90
2018-11-07T04:47:41.033Z,49.70
2018-11-07T04:50:10.481Z,41.70
2018-11-07T04:52:38.844Z,41.10
2018-11-07T04:55:07.041Z,44.90
2018-11-07T04:57:35.135Z,47.33
2018-11-07T05:00:03.266Z,44.07
2018-11-07T05:02:31.331Z,41.33
2018-11-07T05:04:59.429Z,39.90
2018-11-07T05:07:27.490Z,42.13
2018-11-07T05:09:55.636Z,47.47
2018-11-07T05:12:23.674Z,44.20
2018-11-07T05:14:51.718Z,45.60
2018-11-07T05:17:19.814Z,41.93
2018-11-07T05:19:47.941Z,50.40
2018-11-07T05:22:16.005Z,40.37
2018-11-07T05:24:44.081Z,43.23
2018-11-07T05:29:57.610Z,42.37
2018-11-07T05:32:25.818Z,45.60
2018-11-07T05:34:54.078Z,42.57
2018-11-07T05:37:22.225Z,43.33
2018-11-07T05:39:50.257Z,48.57
2018-11-07T05:42:18.278Z,41.90
2018-11-07T05:44:52.867Z,34.80
2018-11-07T05:47:21.005Z,33.20
2018-11-07T05:49:49.758Z,38.10
2018-11-07T05:52:17.894Z,36.43
2018-11-07T05:54:45.909Z,32.83
2018-11-07T05:57:14.124Z,34.57
2018-11-07T05:59:42.206Z,35.50
2018-11-07T06:02:10.475Z,37.50
2018-11-07T06:04:38.554Z,38.50
2018-11-07T06:07:06.672Z,35.07
2018-11-07T06:09:35.076Z,33.90
2018-11-07T06:12:03.326Z,35.97
2018-11-07T06:14:31.421Z,38.77
2018-11-07T06:16:59.529Z,36.33
2018-11-07T06:19:27.777Z,36.93
2018-11-07T06:21:55.921Z,36.37
2018-11-07T06:24:24.291Z,37.57
2018-11-07T06:26:52.610Z,39.23
2018-11-07T06:29:20.784Z,34.17
2018-11-07T06:31:48.825Z,37.83
2018-11-07T06:34:16.999Z,40.67
2018-11-07T06:36:45.118Z,38.77
2018-11-07T06:39:13.245Z,37.17
2018-11-07T06:41:41.270Z,37.87
2018-11-07T06:44:09.503Z,34.10
2018-11-07T06:46:37.899Z,43.57
2018-11-07T06:49:05.943Z,36.83
2018-11-07T06:51:34.022Z,40.83
2018-11-07T06:54:02.195Z,45.40
2018-11-07T06:56:30.245Z,41.33
2018-11-07T06:58:58.465Z,46.00
2018-11-07T07:01:26.686Z,44.00
2018-11-07T07:03:54.779Z,45.07
2018-11-07T07:06:23.074Z,56.00
2018-11-07T07:08:51.580Z,55.13
2018-11-07T07:11:19.637Z,67.97
2018-11-07T07:13:47.693Z,86.57
2018-11-07T07:16:15.789Z,61.20
2018-11-07T07:18:44.008Z,50.33
2018-11-07T07:21:12.080Z,41.37
2018-11-07T07:23:40.094Z,40.40
2018-11-07T07:26:08.177Z,41.40
2018-11-07T07:28:36.376Z,38.57
2018-11-07T07:31:04.632Z,39.27
2018-11-07T07:33:32.706Z,42.50
2018-11-07T07:36:00.764Z,36.60
2018-11-07T07:38:29.141Z,43.13
2018-11-07T07:40:57.522Z,34.73
2018-11-07T07:43:25.592Z,36.93
2018-11-07T07:45:53.682Z,37.10
2018-11-07T07:48:21.704Z,43.30
2018-11-07T07:50:49.797Z,41.03
2018-11-07T07:53:17.918Z,38.03
2018-11-07T07:58:14.427Z,34.10
2018-11-07T08:00:42.477Z,46.57
2018-11-07T08:03:10.461Z,36.33
2018-11-07T08:05:38.572Z,39.10
2018-11-07T08:08:06.657Z,37.03
2018-11-07T08:10:34.712Z,40.50
2018-11-07T08:13:02.719Z,33.70
2018-11-07T08:15:30.829Z,34.50
2018-11-07T08:17:58.858Z,37.97
2018-11-07T08:20:26.894Z,33.00
2018-11-07T08:22:54.998Z,36.87
2018-11-07T08:25:23.083Z,32.50
2018-11-07T08:27:51.141Z,33.93
2018-11-07T08:30:20.659Z,36.57
2018-11-07T08:32:48.722Z,37.90
2018-11-07T08:35:16.878Z,39.80
2018-11-07T08:37:45.719Z,32.73
2018-11-07T08:40:22.363Z,36.60
2018-11-07T08:42:50.630Z,31.20
2018-11-07T08:45:18.649Z,30.93
2018-11-07T08:47:47.291Z,35.23
2018-11-07T08:50:16.634Z,39.50
2018-11-07T08:52:51.265Z,40.43
2018-11-07T08:55:20.622Z,36.57
2018-11-07T08:57:48.701Z,32.67
2018-11-07T09:00:18.074Z,32.40
2018-11-07T09:02:48.245Z,37.77
2018-11-07T09:05:16.904Z,46.60
2018-11-07T09:07:45.571Z,33.57
2018-11-07T09:10:14.894Z,45.00
2018-11-07T09:12:44.283Z,36.77
2018-11-07T09:15:13.626Z,35.17
2018-11-07T09:17:41.887Z,30.30
2018-11-07T09:20:11.588Z,31.47
2018-11-07T09:22:40.419Z,30.73
2018-11-07T09:25:08.466Z,30.17
2018-11-07T09:27:36.578Z,27.87
2018-11-07T09:30:04.931Z,27.80
2018-11-07T09:32:33.105Z,30.30
2018-11-07T09:35:01.412Z,32.23
2018-11-07T09:37:29.634Z,29.83
2018-11-07T09:39:57.761Z,26.83
2018-11-07T09:42:25.869Z,31.80
2018-11-07T09:44:53.941Z,27.23
2018-11-07T09:47:22.271Z,31.90
2018-11-07T09:49:50.399Z,31.90
2018-11-07T09:52:18.423Z,29.37
2018-11-07T09:54:46.531Z,33.70
2018-11-07T09:57:14.578Z,23.27
2018-11-07T09:59:43.010Z,26.13
2018-11-07T10:02:11.054Z,28.80
2018-11-07T10:04:39.173Z,24.03
2018-11-07T10:07:07.247Z,25.07
2018-11-07T10:09:35.594Z,22.37
2018-11-07T10:12:03.934Z,27.50
2018-11-07T10:14:31.991Z,21.03
2018-11-07T10:17:00.023Z,23.67
2018-11-07T10:19:28.234Z,22.97
2018-11-07T10:21:56.278Z,22.60
2018-11-07T10:24:24.427Z,24.23
2018-11-07T10:26:52.704Z,24.80
2018-11-07T10:29:20.917Z,20.10
2018-11-07T10:31:48.699Z,18.53
2018-11-07T10:34:16.944Z,32.90
2018-11-07T10:36:45.061Z,16.20
2018-11-07T10:39:13.130Z,14.50
2018-11-07T10:41:41.233Z,18.10
2018-11-07T10:44:09.386Z,19.13
2018-11-07T10:46:37.409Z,15.60
2018-11-07T10:49:05.754Z,25.37
2018-11-07T10:51:33.920Z,19.87
2018-11-07T10:54:02.010Z,16.40
2018-11-07T10:56:30.151Z,22.90
2018-11-07T10:58:58.166Z,17.30
2018-11-07T11:01:31.767Z,15.80
2018-11-07T11:03:59.892Z,14.20
2018-11-07T11:06:28.269Z,17.33
2018-11-07T11:08:56.394Z,21.50
2018-11-07T11:11:24.594Z,15.57
2018-11-07T11:13:52.624Z,14.30
2018-11-07T11:16:20.654Z,13.63
2018-11-07T11:18:48.729Z,16.43
2018-11-07T11:21:16.782Z,13.60
2018-11-07T11:23:44.950Z,20.40
2018-11-07T11:26:13.051Z,14.40
2018-11-07T11:28:41.125Z,15.07
2018-11-07T11:31:09.168Z,11.97
2018-11-07T11:33:37.293Z,32.33
2018-11-07T11:36:05.571Z,14.50
2018-11-07T11:38:33.642Z,9.50
2018-11-07T11:41:01.668Z,13.10
2018-11-07T11:43:29.700Z,10.80
2018-11-07T11:45:57.805Z,14.83
2018-11-07T11:48:25.893Z,13.53
2018-11-07T11:50:53.941Z,13.60
2018-11-07T11:53:22.026Z,18.10
2018-11-07T11:55:50.100Z,13.20
2018-11-07T11:58:18.174Z,14.63
2018-11-07T12:00:46.241Z,12.10
2018-11-07T12:03:14.364Z,18.73
2018-11-07T12:05:42.479Z,11.30
2018-11-07T12:08:10.517Z,11.43
2018-11-07T12:10:38.610Z,10.30
2018-11-07T12:13:06.741Z,24.37
2018-11-07T12:15:34.689Z,9.57
2018-11-07T12:18:02.734Z,9.50
2018-11-07T12:20:30.758Z,9.17
2018-11-07T12:22:58.827Z,10.00
2018-11-07T12:25:26.860Z,10.20
2018-11-07T12:27:54.870Z,12.23
2018-11-07T12:30:23.797Z,10.10
2018-11-07T12:32:53.071Z,11.33
2018-11-07T12:35:21.683Z,12.80
2018-11-07T12:37:49.728Z,10.13
2018-11-07T12:40:23.142Z,8.80
2018-11-07T12:42:51.204Z,10.43
2018-11-07T12:45:19.157Z,11.53
2018-11-07T12:47:47.195Z,11.87
2018-11-07T12:50:19.620Z,9.23
2018-11-07T12:52:47.855Z,16.53
2018-11-07T12:55:16.310Z,8.53
2018-11-07T12:57:44.457Z,9.03
2018-11-07T13:00:14.961Z,7.23
2018-11-07T13:02:43.042Z,11.60
2018-11-07T13:05:12.609Z,9.40
2018-11-07T13:07:41.101Z,9.57
2018-11-07T13:10:11.711Z,7.80
2018-11-07T13:12:40.209Z,13.13
2018-11-07T13:15:09.358Z,11.63
2018-11-07T13:17:37.475Z,8.73
2018-11-07T13:20:07.756Z,9.37
2018-11-07T13:22:35.765Z,9.30
2018-11-07T13:25:03.924Z,7.30
2018-11-07T13:27:31.990Z,9.30
2018-11-07T13:30:00.051Z,7.37
2018-11-07T13:32:28.033Z,10.37
2018-11-07T13:34:56.108Z,7.50
2018-11-07T13:37:24.307Z,12.10
2018-11-07T13:39:52.258Z,11.90
2018-11-07T13:42:20.291Z,10.33
2018-11-07T13:44:49.227Z,12.23
2018-11-07T13:47:17.253Z,10.07
2018-11-07T13:49:45.253Z,17.20
2018-11-07T13:52:19.851Z,14.13
2018-11-07T13:54:48.053Z,9.20
2018-11-07T13:57:16.093Z,8.17
2018-11-07T13:59:44.097Z,8.50
2018-11-07T14:02:12.116Z,8.20
2018-11-07T14:04:40.185Z,10.93
2018-11-07T14:07:08.269Z,8.50
2018-11-07T14:09:36.352Z,12.60
2018-11-07T14:12:04.618Z,10.67
2018-11-07T14:14:32.638Z,10.50
2018-11-07T14:17:00.753Z,11.90
2018-11-07T14:19:28.921Z,10.17
2018-11-07T14:21:57.015Z,10.00
2018-11-07T14:24:25.028Z,11.40
2018-11-07T14:26:53.148Z,14.37
2018-11-07T14:29:21.153Z,10.77
2018-11-07T14:31:49.345Z,8.87
2018-11-07T14:34:17.381Z,10.57
2018-11-07T14:36:45.490Z,10.17
2018-11-07T14:39:13.662Z,9.23
2018-11-07T14:41:41.761Z,10.20
2018-11-07T14:44:09.873Z,12.43
2018-11-07T14:46:37.942Z,14.57
2018-11-07T14:49:06.012Z,11.77
2018-11-07T14:51:34.177Z,17.23
2018-11-07T14:54:02.776Z,11.10
2018-11-07T14:56:30.741Z,8.50
2018-11-07T14:58:58.836Z,12.90
2018-11-07T15:01:26.877Z,15.87
2018-11-07T15:03:54.832Z,8.90
2018-11-07T15:06:22.796Z,11.17
2018-11-07T15:08:50.764Z,8.83
2018-11-07T15:11:18.904Z,15.00
2018-11-07T15:13:46.837Z,11.47
2018-11-07T15:16:14.850Z,10.60
2018-11-07T15:18:42.816Z,13.73
2018-11-07T15:21:10.791Z,31.77
2018-11-07T15:23:38.758Z,11.63
2018-11-07T15:26:06.854Z,15.97
2018-11-07T15:28:34.816Z,15.50
2018-11-07T15:31:02.813Z,9.47
2018-11-07T15:33:30.799Z,12.20
2018-11-07T15:35:59.190Z,14.30
2018-11-07T15:38:27.205Z,12.33
2018-11-07T15:40:55.214Z,14.03
2018-11-07T15:43:23.288Z,9.43
2018-11-07T15:45:51.176Z,13.40
2018-11-07T15:48:19.148Z,15.10
2018-11-07T15:50:52.693Z,25.83
2018-11-07T15:53:27.321Z,16.33
2018-11-07T15:55:55.270Z,13.57
2018-11-07T15:58:23.258Z,15.70
2018-11-07T16:00:51.321Z,9.90
2018-11-07T16:03:24.724Z,12.43
2018-11-07T16:05:52.744Z,11.00
2018-11-07T16:08:20.760Z,11.80
2018-11-07T16:10:48.756Z,9.43
2018-11-07T16:13:17.358Z,13.33
2018-11-07T16:15:45.424Z,10.37
2018-11-07T16:18:13.428Z,11.20
2018-11-07T16:20:41.479Z,11.00
2018-11-07T16:23:09.415Z,13.30
2018-11-07T16:25:37.373Z,22.37
2018-11-07T16:28:05.369Z,16.73
2018-11-07T16:30:33.365Z,17.90
2018-11-07T16:33:01.633Z,13.57
2018-11-07T16:35:29.629Z,16.27
2018-11-07T16:37:57.871Z,12.23
2018-11-07T16:40:25.772Z,14.80
2018-11-07T16:42:53.754Z,14.80
2018-11-07T16:45:21.811Z,30.17
2018-11-07T16:47:49.797Z,14.27
2018-11-07T16:50:18.364Z,16.37
2018-11-07T16:52:46.468Z,14.33
2018-11-07T16:55:14.752Z,12.27
2018-11-07T16:57:43.020Z,22.33
2018-11-07T17:00:14.128Z,13.90
2018-11-07T17:02:42.713Z,13.53
2018-11-07T17:05:11.556Z,13.63
2018-11-07T17:07:39.868Z,13.67
2018-11-07T17:10:08.585Z,14.80
2018-11-07T17:12:36.746Z,17.67
2018-11-07T17:15:04.978Z,20.80
2018-11-07T17:17:32.960Z,14.00
2018-11-07T17:20:01.092Z,17.30
2018-11-07T17:22:29.106Z,15.20
2018-11-07T17:24:57.128Z,15.23
2018-11-07T17:27:25.087Z,22.43
2018-11-07T17:29:53.053Z,24.13
2018-11-07T17:32:21.105Z,14.50
2018-11-07T17:34:49.069Z,11.70
2018-11-07T17:37:17.114Z,15.00
2018-11-07T17:39:45.140Z,17.90
2018-11-07T17:42:13.183Z,13.93
2018-11-07T17:44:41.468Z,13.90
2018-11-07T17:47:09.521Z,15.83
2018-11-07T17:49:37.599Z,19.60
2018-11-07T17:52:05.687Z,18.30
2018-11-07T17:54:33.668Z,15.03
2018-11-07T17:57:01.655Z,18.40
2018-11-07T17:59:29.640Z,18.03
2018-11-07T18:01:57.616Z,26.33
2018-11-07T18:04:25.600Z,23.77
2018-11-07T18:06:53.652Z,17.20
2018-11-07T18:09:21.799Z,15.07
2018-11-07T18:11:49.777Z,12.77
2018-11-07T18:14:17.795Z,19.23
2018-11-07T18:16:45.801Z,19.30
2018-11-07T18:19:13.923Z,12.43
2018-11-07T18:21:41.941Z,18.73
2018-11-07T18:24:10.086Z,16.27
2018-11-07T18:26:38.085Z,13.50
2018-11-07T18:29:06.800Z,13.27
2018-11-07T18:31:34.912Z,17.20
2018-11-07T18:34:03.340Z,14.90
2018-11-07T18:36:31.633Z,12.67
2018-11-07T18:38:59.601Z,15.87
2018-11-07T18:41:27.823Z,15.70
2018-11-07T18:43:56.140Z,14.60
2018-11-07T18:46:24.441Z,19.40
2018-11-07T18:48:52.527Z,16.70
2018-11-07T18:51:20.972Z,19.87
2018-11-07T18:53:49.001Z,19.97
2018-11-07T18:56:17.183Z,20.40
2018-11-07T18:58:45.240Z,15.83
2018-11-07T19:01:13.184Z,17.43
2018-11-07T19:03:41.188Z,26.03
2018-11-07T19:06:09.225Z,19.27
2018-11-07T19:08:37.200Z,18.50
2018-11-07T19:11:05.571Z,13.00
2018-11-07T19:13:33.560Z,15.80
2018-11-07T19:16:01.516Z,16.30
2018-11-07T19:18:29.516Z,15.50
2018-11-07T19:20:57.491Z,16.63
2018-11-07T19:23:26.348Z,14.93
2018-11-07T19:25:54.304Z,17.47
2018-11-07T19:28:22.306Z,14.93
2018-11-07T19:30:50.320Z,16.00
2018-11-07T19:33:18.345Z,14.70
2018-11-07T19:35:46.320Z,14.63
2018-11-07T19:38:14.342Z,15.23
2018-11-07T19:40:42.332Z,21.87
2018-11-07T19:43:10.385Z,16.73
2018-11-07T19:45:38.486Z,18.43
2018-11-07T19:48:06.548Z,14.40
2018-11-07T19:50:34.504Z,16.27
2018-11-07T19:53:02.507Z,14.47
2018-11-07T19:55:31.563Z,14.27
2018-11-07T19:58:01.012Z,25.03
2018-11-07T20:00:29.235Z,13.77
2018-11-07T20:02:57.405Z,18.97
2018-11-07T20:05:25.349Z,12.47
2018-11-07T20:07:53.480Z,10.97
2018-11-07T20:10:22.313Z,16.33
2018-11-07T20:12:50.286Z,17.93
2018-11-07T20:15:19.323Z,15.40
2018-11-07T20:17:47.533Z,17.93
2018-11-07T20:20:15.760Z,17.27
2018-11-07T20:22:43.856Z,17.67
2018-11-07T20:25:12.818Z,16.50
2018-11-07T20:27:41.190Z,15.43
2018-11-07T20:30:10.798Z,15.50
2018-11-07T20:32:39.081Z,16.00
2018-11-07T20:35:08.503Z,23.57
2018-11-07T20:37:36.960Z,16.00
2018-11-07T20:40:07.131Z,13.77
2018-11-07T20:42:35.088Z,12.93
2018-11-07T20:45:03.137Z,16.60
2018-11-07T20:47:31.135Z,16.73
2018-11-07T20:49:59.156Z,15.87
2018-11-07T20:52:27.100Z,14.57
2018-11-07T20:54:55.160Z,18.73
2018-11-07T20:57:23.164Z,12.43
2018-11-07T20:59:51.240Z,13.90
2018-11-07T21:02:19.224Z,15.97
2018-11-07T21:04:47.210Z,17.13
2018-11-07T21:07:15.168Z,15.80
2018-11-07T21:09:43.227Z,14.00
2018-11-07T21:12:11.192Z,20.13
2018-11-07T21:14:39.200Z,17.40
2018-11-07T21:17:07.176Z,17.60
2018-11-07T21:19:35.173Z,18.67
2018-11-07T21:22:03.164Z,17.23
2018-11-07T21:24:31.178Z,15.93
2018-11-07T21:26:59.185Z,14.73
2018-11-07T21:29:27.116Z,14.53
2018-11-07T21:31:55.105Z,14.63
2018-11-07T21:34:23.177Z,14.20
2018-11-07T21:36:51.141Z,13.53
2018-11-07T21:39:19.117Z,14.07
2018-11-07T21:41:47.104Z,16.73
2018-11-07T21:44:15.283Z,14.40
2018-11-07T21:46:43.231Z,12.60
2018-11-07T21:49:11.468Z,21.93
2018-11-07T21:51:39.494Z,14.83
2018-11-07T21:54:07.456Z,14.77
2018-11-07T21:56:35.483Z,19.20
2018-11-07T21:59:03.502Z,11.53
2018-11-07T22:01:31.481Z,16.50
2018-11-07T22:03:59.491Z,17.30
2018-11-07T22:06:27.459Z,17.67
2018-11-07T22:08:55.435Z,16.53
2018-11-07T22:11:23.465Z,19.33
2018-11-07T22:13:51.520Z,17.80
2018-11-07T22:16:19.485Z,17.10
2018-11-07T22:18:47.494Z,16.23
2018-11-07T22:21:15.449Z,15.70
2018-11-07T22:23:43.404Z,13.20
2018-11-07T22:26:11.485Z,15.20
2018-11-07T22:28:39.439Z,11.47
2018-11-07T22:31:07.449Z,12.33
2018-11-07T22:33:35.411Z,12.50
2018-11-07T22:36:03.432Z,17.03
2018-11-07T22:38:31.413Z,14.87
2018-11-07T22:40:59.392Z,11.60
2018-11-07T22:43:27.365Z,11.47
2018-11-07T22:45:55.342Z,14.80
2018-11-07T22:48:23.312Z,13.17
2018-11-07T22:50:51.376Z,13.70
2018-11-07T22:53:19.441Z,14.67
2018-11-07T22:55:47.473Z,11.80
2018-11-07T22:58:15.477Z,12.13
2018-11-07T23:00:48.990Z,11.30
2018-11-07T23:03:17.301Z,9.67
2018-11-07T23:05:45.285Z,11.23
2018-11-07T23:08:13.254Z,13.93
2018-11-07T23:10:41.257Z,10.80
2018-11-07T23:13:09.332Z,12.00
2018-11-07T23:15:42.886Z,13.07
2018-11-07T23:18:10.890Z,19.60
2018-11-07T23:20:38.991Z,15.07
2018-11-07T23:23:06.967Z,13.57
2018-11-07T23:25:34.952Z,12.90
2018-11-07T23:28:02.952Z,12.20
2018-11-07T23:30:30.920Z,10.13
2018-11-07T23:32:59.000Z,11.33
2018-11-07T23:35:27.078Z,12.40
2018-11-07T23:37:55.060Z,16.10
2018-11-07T23:40:23.046Z,15.13
2018-11-07T23:42:51.085Z,17.07
2018-11-07T23:45:19.069Z,18.60
2018-11-07T23:47:47.056Z,15.60
2018-11-07T23:50:15.049Z,13.70
2018-11-07T23:52:49.328Z,20.60
2018-11-07T23:55:18.919Z,12.80
2018-11-07T23:57:47.186Z,13.60
